Time;durP1;ratioP1;P1;durP2;ratioP2;P2;SDS_P1;SDS_P2;PMS_P1;PMS_P2;Temp;Humidity;BMP_temperature;BMP_pressure;BME280_temperature;BME280_humidity;BME280_pressure;Samples;Min_cycle;Max_cycle;Signal;HPM_P1;HPM_P2
2021/12/04 00:00:21;;;;;;;65.88;29.90;;;4.50;99.90;;;;;;5077823;28;20136;-81
2021/12/04 00:02:48;;;;;;;67.03;29.67;;;4.50;99.90;;;;;;5084002;28;20436;-81
2021/12/04 00:05:14;;;;;;;73.45;31.25;;;4.50;99.90;;;;;;5057817;28;20491;-81
2021/12/04 00:07:40;;;;;;;77.45;32.03;;;4.50;99.90;;;;;;5076548;28;20042;-80
2021/12/04 00:10:06;;;;;;;73.95;31.20;;;4.50;99.90;;;;;;5077559;28;20077;-80
2021/12/04 00:12:34;;;;;;;76.03;31.77;;;4.50;99.90;;;;;;5074956;28;21780;-80
2021/12/04 00:15:00;;;;;;;66.40;28.25;;;4.50;99.90;;;;;;5081036;28;20103;-81
2021/12/04 00:17:27;;;;;;;72.45;28.15;;;4.50;99.90;;;;;;5059529;28;20028;-80
2021/12/04 00:19:53;;;;;;;76.70;30.58;;;4.50;99.90;;;;;;5061743;28;20062;-82
2021/12/04 00:22:19;;;;;;;85.68;31.48;;;4.50;99.90;;;;;;5060562;28;20579;-81
2021/12/04 00:24:45;;;;;;;79.65;30.40;;;4.50;99.90;;;;;;5059759;28;20119;-79
2021/12/04 00:27:11;;;;;;;79.78;31.10;;;4.50;99.90;;;;;;5077264;28;20126;-81
2021/12/04 00:29:37;;;;;;;74.88;29.30;;;4.40;99.90;;;;;;5074491;28;20046;-80
2021/12/04 00:32:10;;;;;;;75.13;30.13;;;4.50;99.90;;;;;;5078677;28;20092;-81
2021/12/04 00:34:41;;;;;;;81.00;30.65;;;4.50;99.90;;;;;;5059116;28;20052;-81
2021/12/04 00:50:48;;;;;;;92.25;33.05;;;4.40;99.90;;;;;;5089805;28;20104;-81
2021/12/04 00:53:14;;;;;;;91.43;30.80;;;4.40;99.90;;;;;;5089296;27;20496;-79
2021/12/04 00:55:40;;;;;;;83.40;29.58;;;4.40;99.90;;;;;;5069289;28;20400;-79
2021/12/04 00:58:06;;;;;;;92.80;31.42;;;4.40;99.90;;;;;;5052781;28;20056;-79
2021/12/04 01:00:31;;;;;;;83.65;28.23;;;4.40;99.90;;;;;;5070033;28;20056;-81
2021/12/04 01:02:57;;;;;;;95.95;30.63;;;4.40;99.90;;;;;;5051835;28;20050;-79
2021/12/04 01:05:23;;;;;;;99.40;30.75;;;4.40;99.90;;;;;;5070548;28;20083;-81
2021/12/04 01:07:48;;;;;;;85.95;30.45;;;4.40;99.90;;;;;;5055461;28;20101;-80
2021/12/04 01:10:14;;;;;;;85.20;28.65;;;4.40;99.90;;;;;;5052311;28;20127;-80
2021/12/04 01:12:40;;;;;;;121.45;35.80;;;4.40;99.90;;;;;;5052401;28;20054;-79
2021/12/04 01:15:06;;;;;;;77.60;27.95;;;4.40;99.90;;;;;;5072247;28;20113;-80
2021/12/04 01:17:32;;;;;;;86.05;29.30;;;4.40;99.90;;;;;;5053524;28;20283;-81
2021/12/04 01:19:58;;;;;;;86.88;30.25;;;4.40;99.90;;;;;;5071538;28;20420;-80
2021/12/04 01:22:25;;;;;;;103.55;31.17;;;4.40;99.90;;;;;;5068945;28;20047;-80
2021/12/04 01:24:50;;;;;;;85.00;29.48;;;4.40;99.90;;;;;;5069781;28;20424;-81
2021/12/04 01:27:16;;;;;;;87.50;29.67;;;4.40;99.90;;;;;;5051544;28;20044;-79
2021/12/04 01:29:42;;;;;;;100.13;30.55;;;4.40;99.90;;;;;;5071767;28;20193;-80
2021/12/04 01:32:09;;;;;;;109.72;31.27;;;4.40;99.90;;;;;;5052250;28;20047;-80
2021/12/04 01:34:36;;;;;;;105.93;29.73;;;4.40;99.90;;;;;;5050539;28;20040;-80
2021/12/04 01:37:03;;;;;;;85.07;28.77;;;4.40;99.90;;;;;;5054336;28;20060;-80
2021/12/04 01:39:28;;;;;;;91.63;28.92;;;4.40;99.90;;;;;;5055006;28;20045;-80
2021/12/04 01:41:54;;;;;;;94.47;28.58;;;4.40;99.90;;;;;;5054647;28;20451;-80
2021/12/04 01:44:20;;;;;;;85.40;28.55;;;4.50;99.90;;;;;;5070054;28;20605;-80
2021/12/04 01:46:46;;;;;;;90.03;28.83;;;4.40;99.90;;;;;;5069801;28;20045;-80
2021/12/04 01:49:11;;;;;;;82.45;28.02;;;4.40;99.90;;;;;;5055658;28;20097;-80
2021/12/04 01:51:37;;;;;;;93.47;29.67;;;4.40;99.90;;;;;;5053513;28;20032;-81
2021/12/04 01:54:04;;;;;;;95.28;27.83;;;4.40;99.90;;;;;;5069486;28;20047;-80
2021/12/04 01:56:34;;;;;;;91.70;29.65;;;4.40;99.90;;;;;;5059442;28;20691;-81
2021/12/04 01:59:00;;;;;;;85.45;28.45;;;4.40;99.90;;;;;;5079564;28;20619;-81
2021/12/04 02:01:26;;;;;;;114.55;30.38;;;4.40;99.90;;;;;;5058219;28;20041;-81
2021/12/04 02:03:52;;;;;;;89.82;28.55;;;4.40;99.90;;;;;;5065224;28;20460;-80
2021/12/04 02:06:18;;;;;;;93.40;28.17;;;4.40;99.90;;;;;;5055598;28;20044;-80
2021/12/04 02:08:44;;;;;;;80.25;27.67;;;4.40;99.90;;;;;;5049979;28;20106;-81
2021/12/04 02:11:10;;;;;;;87.63;28.25;;;4.90;99.90;;;;;;5050693;28;20043;-80
2021/12/04 02:13:36;;;;;;;117.18;30.42;;;4.40;99.90;;;;;;5071886;28;20378;-80
2021/12/04 02:16:03;;;;;;;91.72;28.77;;;4.40;99.90;;;;;;5072434;28;20048;-80
2021/12/04 02:18:29;;;;;;;107.63;28.90;;;4.60;99.90;;;;;;5068292;28;20048;-80
2021/12/04 02:20:55;;;;;;;95.28;28.45;;;4.40;99.90;;;;;;5051438;28;20074;-81
2021/12/04 02:23:21;;;;;;;114.68;30.25;;;4.40;99.90;;;;;;5067763;28;20043;-80
2021/12/04 02:25:47;;;;;;;122.00;29.60;;;4.40;99.90;;;;;;5050792;28;20397;-80
2021/12/04 02:28:13;;;;;;;110.55;28.23;;;4.40;99.90;;;;;;5066516;28;21124;-80
2021/12/04 02:30:43;;;;;;;105.32;28.60;;;4.40;99.90;;;;;;5049983;28;20417;-80
2021/12/04 02:33:12;;;;;;;80.65;29.02;;;4.40;99.90;;;;;;5047162;28;20052;-80
2021/12/04 02:35:56;;;;;;;82.28;26.90;;;4.40;99.90;;;;;;5068082;28;20118;-80
2021/12/04 02:38:25;;;;;;;88.68;27.95;;;4.40;99.90;;;;;;5070249;28;20672;-80
2021/12/04 02:40:52;;;;;;;115.47;30.80;;;4.40;99.90;;;;;;5072901;28;20118;-80
2021/12/04 02:43:18;;;;;;;91.70;27.55;;;4.40;99.90;;;;;;5079131;28;20552;-80
2021/12/04 02:45:44;;;;;;;92.55;29.38;;;4.40;99.90;;;;;;5064077;28;20113;-81
2021/12/04 02:48:11;;;;;;;99.75;27.33;;;4.40;99.90;;;;;;5062850;28;20044;-80
2021/12/04 02:50:37;;;;;;;87.93;28.20;;;4.40;99.90;;;;;;5077350;28;20043;-80
2021/12/04 02:53:03;;;;;;;84.63;26.30;;;4.40;99.90;;;;;;5074643;28;20436;-80
2021/12/04 02:55:29;;;;;;;88.47;26.58;;;4.30;99.90;;;;;;5061802;28;20572;-81
2021/12/04 02:57:55;;;;;;;109.47;34.03;;;4.30;99.90;;;;;;5068841;28;20688;-80
2021/12/04 03:00:23;;;;;;;97.10;29.13;;;4.40;99.90;;;;;;5066219;28;20122;-80
2021/12/04 03:02:49;;;;;;;77.22;24.45;;;4.30;99.90;;;;;;5067476;28;20408;-81
2021/12/04 03:05:23;;;;;;;114.05;29.02;;;4.30;99.90;;;;;;5070763;28;20032;-81
2021/12/04 03:07:50;;;;;;;82.90;24.42;;;4.30;99.90;;;;;;5068054;28;20454;-80
2021/12/04 03:10:15;;;;;;;97.53;25.63;;;4.30;99.90;;;;;;5080148;28;20389;-80
2021/12/04 03:12:41;;;;;;;86.90;23.90;;;4.30;99.90;;;;;;5074613;28;20042;-80
2021/12/04 03:15:08;;;;;;;82.82;25.25;;;4.30;99.90;;;;;;5066091;28;20126;-80
2021/12/04 03:17:34;;;;;;;85.30;24.45;;;4.30;99.90;;;;;;5087026;28;20046;-80
2021/12/04 03:20:00;;;;;;;86.53;25.00;;;4.30;99.90;;;;;;5067198;28;20055;-80
2021/12/04 03:22:26;;;;;;;83.65;24.55;;;4.30;99.90;;;;;;5068676;28;20165;-81
2021/12/04 03:24:54;;;;;;;93.43;25.33;;;4.30;99.90;;;;;;5071034;28;20527;-81
2021/12/04 03:27:20;;;;;;;82.00;22.92;;;4.30;99.90;;;;;;5049851;28;20055;-81
2021/12/04 03:29:56;;;;;;;92.10;24.63;;;4.30;99.90;;;;;;5056164;28;20511;-81
2021/12/04 03:32:49;;;;;;;64.13;21.52;;;4.30;99.90;;;;;;5053450;28;20039;-81
2021/12/04 03:43:00;;;;;;;70.57;22.27;;;4.30;99.90;;;;;;5091922;28;20044;-81
2021/12/04 03:45:27;;;;;;;78.18;22.70;;;4.30;99.90;;;;;;5093149;28;20035;-82
2021/12/04 03:47:57;;;;;;;76.00;22.23;;;4.30;99.90;;;;;;5088615;28;20063;-81
2021/12/04 03:50:22;;;;;;;66.68;21.48;;;4.30;99.90;;;;;;5077112;28;20039;-80
2021/12/04 03:52:48;;;;;;;78.18;23.40;;;4.30;99.90;;;;;;5071627;28;20047;-80
2021/12/04 03:55:14;;;;;;;68.47;21.25;;;4.30;99.90;;;;;;5075459;28;20070;-80
2021/12/04 03:57:44;;;;;;;77.95;23.25;;;4.30;99.90;;;;;;5065647;28;20416;-80
2021/12/04 04:00:15;;;;;;;72.18;21.38;;;4.30;99.90;;;;;;5076227;28;20040;-80
2021/12/04 04:02:41;;;;;;;75.03;22.17;;;4.30;99.90;;;;;;5070715;28;20051;-80
2021/12/04 04:05:07;;;;;;;66.07;20.73;;;4.30;99.90;;;;;;5077596;28;20040;-80
2021/12/04 04:07:33;;;;;;;62.33;20.65;;;4.30;99.90;;;;;;5075750;28;20606;-80
2021/12/04 04:09:59;;;;;;;58.45;20.75;;;4.30;99.90;;;;;;5075393;28;20047;-80
2021/12/04 04:12:25;;;;;;;76.93;21.50;;;4.30;99.90;;;;;;5076194;28;20131;-80
2021/12/04 04:14:50;;;;;;;65.18;19.65;;;4.30;99.90;;;;;;5084543;28;20050;-81
2021/12/04 04:17:16;;;;;;;73.53;21.50;;;4.30;99.90;;;;;;5083144;28;20040;-80
2021/12/04 04:19:42;;;;;;;86.85;23.50;;;4.30;99.90;;;;;;5087416;28;20064;-80
2021/12/04 04:22:10;;;;;;;55.67;19.02;;;4.30;99.90;;;;;;5071884;28;20054;-80
2021/12/04 04:24:36;;;;;;;64.43;19.60;;;4.30;99.90;;;;;;5058677;28;20051;-81
2021/12/04 04:27:02;;;;;;;54.30;19.10;;;4.30;99.90;;;;;;5075876;28;20052;-81
2021/12/04 04:29:28;;;;;;;64.28;19.98;;;4.30;99.90;;;;;;5068778;28;20273;-80
2021/12/04 04:31:55;;;;;;;71.22;22.05;;;4.30;99.90;;;;;;5052862;28;20044;-81
2021/12/04 04:34:29;;;;;;;53.15;19.83;;;4.30;99.90;;;;;;5052289;28;20676;-80
2021/12/04 05:14:42;;;;;;;82.43;19.42;;;4.30;99.90;;;;;;5086317;28;20134;-80
2021/12/04 05:17:15;;;;;;;68.18;19.35;;;4.30;99.90;;;;;;5071806;28;20412;-80
2021/12/04 05:22:08;;;;;;;65.45;18.33;;;4.30;99.90;;;;;;5083288;28;21070;-80
2021/12/04 05:24:34;;;;;;;60.13;18.67;;;4.30;99.90;;;;;;5070112;28;20630;-80
2021/12/04 05:27:00;;;;;;;66.90;18.88;;;4.30;99.90;;;;;;5066744;28;20061;-80
2021/12/04 05:29:26;;;;;;;68.63;18.33;;;4.30;99.90;;;;;;5083333;28;20040;-80
2021/12/04 05:31:52;;;;;;;56.13;18.17;;;4.30;99.90;;;;;;5095198;28;20724;-81
2021/12/04 05:34:18;;;;;;;66.97;19.70;;;4.30;99.90;;;;;;5088957;28;20298;-80
2021/12/04 05:36:44;;;;;;;52.67;17.75;;;4.80;99.90;;;;;;5078058;28;20032;-80
2021/12/04 05:39:10;;;;;;;57.80;18.83;;;4.30;99.90;;;;;;5088560;28;20109;-80
2021/12/04 05:41:36;;;;;;;57.47;19.40;;;4.30;99.90;;;;;;5077645;28;20044;-80
2021/12/04 05:44:07;;;;;;;52.40;17.52;;;4.30;99.90;;;;;;5061994;28;20058;-80
2021/12/04 05:46:43;;;;;;;64.70;18.05;;;4.30;99.90;;;;;;5081097;28;20035;-80
2021/12/04 05:49:20;;;;;;;65.63;18.95;;;4.30;99.90;;;;;;5066097;28;20058;-80
2021/12/04 05:56:55;;;;;;;55.22;16.98;;;4.30;99.90;;;;;;5091915;28;20138;-81
2021/12/04 05:59:21;;;;;;;58.55;19.25;;;4.30;99.90;;;;;;5076746;28;20063;-80
2021/12/04 06:01:46;;;;;;;57.97;17.90;;;4.30;99.90;;;;;;5078920;28;20112;-80
2021/12/04 06:04:12;;;;;;;47.40;16.58;;;4.30;99.90;;;;;;5077291;28;20097;-81
2021/12/04 06:06:38;;;;;;;53.45;17.58;;;4.30;99.90;;;;;;5057596;28;20079;-80
2021/12/04 06:09:05;;;;;;;58.25;17.05;;;4.30;99.90;;;;;;5076769;28;20309;-81
2021/12/04 06:11:32;;;;;;;58.33;18.45;;;4.30;99.90;;;;;;5062607;28;20515;-80
2021/12/04 06:13:58;;;;;;;63.83;19.08;;;4.30;99.90;;;;;;5082688;28;20040;-81
2021/12/04 06:16:23;;;;;;;70.28;19.10;;;4.30;99.90;;;;;;5075911;28;20028;-80
2021/12/04 06:18:52;;;;;;;55.78;17.30;;;4.20;99.90;;;;;;5067189;28;20052;-80
2021/12/04 06:24:05;;;;;;;68.03;17.90;;;4.20;99.90;;;;;;5080988;28;20055;-81
2021/12/04 06:26:35;;;;;;;62.70;19.40;;;4.20;99.90;;;;;;5069032;28;20051;-80
2021/12/04 06:29:02;;;;;;;59.00;18.02;;;4.30;99.90;;;;;;5084379;28;20091;-80
2021/12/04 06:31:29;;;;;;;57.67;17.13;;;4.20;99.90;;;;;;5078530;28;20035;-81
2021/12/04 06:33:55;;;;;;;75.82;17.95;;;4.20;99.90;;;;;;5079520;28;20459;-81
2021/12/04 06:36:22;;;;;;;60.10;18.30;;;4.30;99.90;;;;;;5078357;28;20135;-80
2021/12/04 06:38:48;;;;;;;72.32;18.38;;;4.30;99.90;;;;;;5055876;28;20047;-80
2021/12/04 06:41:14;;;;;;;58.55;17.27;;;4.20;99.90;;;;;;5070170;28;20047;-80
2021/12/04 06:43:46;;;;;;;61.85;18.73;;;4.30;99.90;;;;;;5058626;28;20054;-80
2021/12/04 06:46:11;;;;;;;74.35;20.63;;;4.20;99.90;;;;;;5067701;28;20043;-81
2021/12/04 06:51:15;;;;;;;71.00;19.38;;;4.30;99.90;;;;;;5063792;28;20643;-79
2021/12/04 06:53:53;;;;;;;77.18;19.08;;;4.20;99.90;;;;;;5051211;28;20055;-80
2021/12/04 06:56:20;;;;;;;58.22;16.42;;;4.20;99.90;;;;;;5071837;28;20062;-80
2021/12/04 06:58:46;;;;;;;81.65;21.02;;;4.20;99.90;;;;;;5072947;28;20064;-81
2021/12/04 07:01:12;;;;;;;92.15;21.48;;;4.20;99.90;;;;;;5072439;28;20078;-81
2021/12/04 07:03:39;;;;;;;86.00;20.98;;;4.20;99.90;;;;;;5070789;28;20071;-81
2021/12/04 07:06:06;;;;;;;94.88;20.05;;;4.20;99.90;;;;;;5073115;28;20150;-80
2021/12/04 07:08:31;;;;;;;75.50;18.52;;;4.20;99.90;;;;;;5087789;28;20293;-81
2021/12/04 07:10:57;;;;;;;113.35;22.73;;;4.40;99.90;;;;;;5078212;28;20118;-80
2021/12/04 07:13:23;;;;;;;81.72;19.52;;;4.20;99.90;;;;;;5071945;28;20086;-80
2021/12/04 07:15:58;;;;;;;71.50;19.38;;;4.20;99.90;;;;;;5057045;28;20047;-80
2021/12/04 07:18:23;;;;;;;70.22;18.27;;;4.30;99.90;;;;;;5057003;28;20110;-80
2021/12/04 07:20:49;;;;;;;104.97;24.45;;;4.20;99.90;;;;;;5072593;28;20216;-81
2021/12/04 07:23:15;;;;;;;76.72;18.65;;;4.10;99.90;;;;;;5070418;28;20423;-81
2021/12/04 07:25:40;;;;;;;79.05;20.60;;;4.20;99.90;;;;;;5072863;28;20036;-81
2021/12/04 07:28:06;;;;;;;61.83;18.73;;;4.20;99.90;;;;;;5073962;28;20044;-81
2021/12/04 07:30:32;;;;;;;80.43;18.30;;;4.20;99.90;;;;;;5071486;28;20051;-80
2021/12/04 07:32:57;;;;;;;97.15;20.95;;;4.20;99.90;;;;;;5092261;28;20040;-80
2021/12/04 07:35:23;;;;;;;92.07;20.48;;;4.10;99.90;;;;;;5055768;28;20169;-81
2021/12/04 07:37:49;;;;;;;93.35;20.92;;;4.20;99.90;;;;;;5070607;28;20050;-80
2021/12/04 07:40:15;;;;;;;102.10;20.80;;;4.10;99.90;;;;;;5073686;28;20059;-81
2021/12/04 07:42:41;;;;;;;95.43;20.23;;;4.20;99.90;;;;;;5057140;28;20050;-80
2021/12/04 07:45:07;;;;;;;84.00;19.38;;;4.20;99.90;;;;;;5058430;28;20412;-81
2021/12/04 07:47:33;;;;;;;87.05;19.67;;;4.20;99.90;;;;;;5054300;28;20107;-81
2021/12/04 07:50:01;;;;;;;91.82;21.55;;;4.20;99.90;;;;;;5066828;28;20054;-80
2021/12/04 07:52:27;;;;;;;85.00;20.45;;;4.70;99.90;;;;;;5079254;28;20603;-81
2021/12/04 07:54:52;;;;;;;68.72;19.15;;;4.20;99.90;;;;;;5060267;28;20055;-81
2021/12/04 07:57:20;;;;;;;78.00;20.27;;;4.20;99.90;;;;;;5075558;28;20067;-80
2021/12/04 07:59:45;;;;;;;79.95;20.80;;;4.20;99.90;;;;;;5093223;28;20044;-81
2021/12/04 08:02:12;;;;;;;99.82;22.60;;;4.20;99.90;;;;;;5074193;28;20478;-81
2021/12/04 08:04:38;;;;;;;72.93;20.30;;;4.20;99.90;;;;;;5074796;28;20082;-81
2021/12/04 08:07:04;;;;;;;77.28;20.75;;;4.20;99.90;;;;;;5073282;28;20123;-81
2021/12/04 08:09:29;;;;;;;87.38;20.10;;;4.20;99.90;;;;;;5075856;28;20054;-81
2021/12/04 08:11:56;;;;;;;77.03;19.60;;;4.20;99.90;;;;;;5063770;28;20153;-81
2021/12/04 08:14:21;;;;;;;71.68;20.40;;;4.20;99.90;;;;;;5091406;28;20097;-82
2021/12/04 08:16:47;;;;;;;59.88;18.42;;;4.20;99.90;;;;;;5060934;28;20044;-81
2021/12/04 08:19:13;;;;;;;78.30;19.73;;;4.20;99.90;;;;;;5081132;28;20043;-81
2021/12/04 08:21:39;;;;;;;60.13;17.80;;;4.20;99.90;;;;;;5083212;28;20040;-82
2021/12/04 08:24:06;;;;;;;65.70;19.50;;;4.20;99.90;;;;;;5088084;28;20628;-82
2021/12/04 08:26:34;;;;;;;59.53;17.40;;;4.20;99.90;;;;;;5069204;28;20054;-82
2021/12/04 08:28:59;;;;;;;58.25;19.33;;;4.20;99.90;;;;;;5075937;27;20044;-81
2021/12/04 08:31:25;;;;;;;73.47;20.65;;;4.20;99.90;;;;;;5044240;28;20046;-81
2021/12/04 08:33:51;;;;;;;73.43;20.77;;;4.20;99.90;;;;;;5060072;28;20035;-82
2021/12/04 08:36:17;;;;;;;75.78;20.20;;;4.20;99.90;;;;;;5077391;28;20047;-81
2021/12/04 08:38:46;;;;;;;72.50;19.15;;;4.20;99.90;;;;;;5074007;28;20052;-81
2021/12/04 08:41:14;;;;;;;74.40;19.67;;;4.20;99.90;;;;;;5090549;27;20123;-80
2021/12/04 08:43:40;;;;;;;71.75;20.73;;;4.30;99.90;;;;;;5074986;28;20062;-80
2021/12/04 08:46:07;;;;;;;58.05;18.73;;;4.30;99.90;;;;;;5092423;28;20408;-82
2021/12/04 08:48:33;;;;;;;66.85;18.63;;;4.30;99.90;;;;;;5079977;28;20057;-82
2021/12/04 08:51:00;;;;;;;79.30;20.92;;;4.30;99.90;;;;;;5065225;28;20047;-82
2021/12/04 08:53:27;;;;;;;67.55;19.23;;;4.20;99.90;;;;;;5058745;28;20067;-82
2021/12/04 08:55:53;;;;;;;79.53;19.75;;;4.20;99.90;;;;;;5077400;28;20105;-81
2021/12/04 08:58:20;;;;;;;70.00;18.67;;;4.30;99.90;;;;;;5077767;28;20063;-80
2021/12/04 09:00:54;;;;;;;73.43;20.13;;;4.20;99.90;;;;;;5081148;28;20044;-81
2021/12/04 09:03:24;;;;;;;57.15;17.85;;;4.30;99.90;;;;;;5079006;28;20052;-81
2021/12/04 09:05:51;;;;;;;59.30;18.75;;;4.30;99.90;;;;;;5064695;28;20047;-80
2021/12/04 09:08:19;;;;;;;80.60;20.42;;;4.30;99.90;;;;;;5055900;28;20049;-81
2021/12/04 09:10:47;;;;;;;69.15;20.67;;;4.30;99.90;;;;;;5080075;28;20052;-81
2021/12/04 09:13:15;;;;;;;62.85;19.27;;;4.30;99.90;;;;;;5063106;28;20044;-81
2021/12/04 09:15:42;;;;;;;55.83;16.48;;;4.30;99.90;;;;;;5072570;28;20500;-81
2021/12/04 09:18:08;;;;;;;53.05;16.70;;;4.30;99.90;;;;;;5073207;28;20124;-80
2021/12/04 09:20:34;;;;;;;58.45;16.92;;;4.30;99.90;;;;;;5055590;28;20618;-80
2021/12/04 09:23:02;;;;;;;52.50;16.67;;;4.30;99.90;;;;;;5055850;28;20076;-81
2021/12/04 09:25:30;;;;;;;50.78;15.82;;;4.30;99.90;;;;;;5071298;28;20052;-81
2021/12/04 09:28:19;;;;;;;50.08;15.88;;;4.40;99.90;;;;;;5057630;28;20036;-81
2021/12/04 10:22:21;;;;;;;26.67;12.45;;;4.60;99.90;;;;;;5076331;28;20051;-81
2021/12/04 10:33:39;;;;;;;25.23;12.90;;;4.70;99.90;;;;;;5074865;28;20059;-81
2021/12/04 10:36:04;;;;;;;25.92;12.63;;;4.70;99.90;;;;;;5061844;28;20051;-81
2021/12/04 10:38:38;;;;;;;24.55;12.95;;;4.60;99.90;;;;;;5077042;28;20603;-81
2021/12/04 10:41:05;;;;;;;24.10;13.32;;;4.70;99.90;;;;;;5063267;28;20043;-82
2021/12/04 10:43:32;;;;;;;26.17;13.48;;;4.70;99.90;;;;;;5059206;28;20087;-81
2021/12/04 10:46:01;;;;;;;23.63;12.30;;;4.70;99.90;;;;;;5075585;28;20056;-82
2021/12/04 10:48:30;;;;;;;28.70;13.52;;;4.70;99.90;;;;;;5057006;28;20058;-81
2021/12/04 10:51:18;;;;;;;28.00;13.45;;;4.70;99.90;;;;;;5070476;28;20063;-81
2021/12/04 10:53:49;;;;;;;27.65;13.57;;;4.70;99.90;;;;;;5062673;28;20040;-81
2021/12/04 10:59:28;;;;;;;23.60;13.15;;;4.80;99.90;;;;;;5050650;28;20062;-81
2021/12/04 11:26:32;;;;;;;29.27;14.85;;;4.90;99.90;;;;;;5073823;28;20043;-81
2021/12/04 11:42:36;;;;;;;27.77;13.38;;;4.90;99.90;;;;;;5071048;28;20052;-81
2021/12/04 11:45:18;;;;;;;28.48;13.10;;;5.00;99.90;;;;;;5070871;28;20745;-83
2021/12/04 11:47:49;;;;;;;27.10;12.50;;;4.90;99.90;;;;;;5069391;28;20072;-81
2021/12/04 11:50:24;;;;;;;27.13;13.55;;;5.00;99.90;;;;;;5071062;28;20059;-81
2021/12/04 11:52:53;;;;;;;28.30;13.23;;;5.00;99.90;;;;;;5052973;28;20040;-81
2021/12/04 11:55:21;;;;;;;26.67;14.27;;;5.00;99.90;;;;;;5071928;28;20055;-82
2021/12/04 11:57:48;;;;;;;24.98;12.65;;;5.00;99.90;;;;;;5088404;27;20050;-81
2021/12/04 12:00:30;;;;;;;28.70;13.95;;;5.00;99.90;;;;;;5072068;28;20307;-81
2021/12/04 12:03:09;;;;;;;23.30;12.32;;;5.00;99.90;;;;;;5073847;28;20100;-80
2021/12/04 12:05:55;;;;;;;28.33;13.80;;;5.00;99.90;;;;;;5053517;28;20126;-81
2021/12/04 12:08:26;;;;;;;31.80;16.00;;;5.00;99.90;;;;;;5064145;28;20100;-82
2021/12/04 12:10:57;;;;;;;30.50;14.30;;;5.00;99.90;;;;;;5062155;28;20077;-81
2021/12/04 12:13:28;;;;;;;33.92;15.15;;;5.00;99.90;;;;;;5073084;28;20472;-81
2021/12/04 12:16:10;;;;;;;32.50;14.45;;;5.00;99.90;;;;;;5078726;28;20086;-80
2021/12/04 12:18:50;;;;;;;33.33;15.73;;;5.00;99.90;;;;;;5075199;28;20052;-81
2021/12/04 12:21:19;;;;;;;31.55;14.52;;;5.00;99.90;;;;;;5055562;28;20047;-80
2021/12/04 12:27:13;;;;;;;32.10;15.65;;;5.00;99.90;;;;;;5079945;28;20510;-82
2021/12/04 12:38:53;;;;;;;36.35;14.90;;;5.10;99.90;;;;;;5056311;28;20079;-81
2021/12/04 12:41:39;;;;;;;31.08;14.65;;;5.10;99.90;;;;;;5057224;28;20093;-81
2021/12/04 12:44:29;;;;;;;34.45;16.15;;;5.20;99.90;;;;;;5069814;28;20040;-81
2021/12/04 12:47:15;;;;;;;35.30;15.73;;;5.10;99.90;;;;;;5051097;28;20048;-81
2021/12/04 12:49:43;;;;;;;38.05;16.20;;;5.10;99.90;;;;;;5063845;28;20492;-81
2021/12/04 12:52:15;;;;;;;35.25;16.20;;;5.00;99.90;;;;;;5062174;28;20069;-81
2021/12/04 12:54:43;;;;;;;35.70;15.55;;;5.00;99.90;;;;;;5048351;28;20054;-81
2021/12/04 12:57:27;;;;;;;36.90;16.60;;;5.00;99.90;;;;;;5048949;28;20047;-81
2021/12/04 13:11:44;;;;;;;43.70;17.02;;;5.00;99.90;;;;;;5060047;28;21050;-82
2021/12/04 13:14:17;;;;;;;38.30;16.48;;;5.00;99.90;;;;;;5058557;28;20097;-81
2021/12/04 13:16:46;;;;;;;42.00;18.13;;;5.00;99.90;;;;;;5052040;28;20059;-82
2021/12/04 13:19:14;;;;;;;40.00;17.90;;;5.00;99.90;;;;;;5058875;28;20048;-81
2021/12/04 13:21:46;;;;;;;43.15;18.13;;;5.00;99.90;;;;;;5042325;28;20046;-81
2021/12/04 13:24:13;;;;;;;38.40;16.30;;;5.00;99.90;;;;;;5061403;28;20048;-82
2021/12/04 13:26:42;;;;;;;39.75;17.23;;;5.00;99.90;;;;;;5070968;28;20542;-81
2021/12/04 13:29:09;;;;;;;38.13;15.80;;;5.00;99.90;;;;;;5077676;28;20043;-81
2021/12/04 13:31:38;;;;;;;37.38;15.73;;;5.00;99.90;;;;;;5050157;28;20045;-82
2021/12/04 13:34:09;;;;;;;32.15;15.23;;;5.30;99.90;;;;;;5057104;28;20149;-82
2021/12/04 13:36:36;;;;;;;44.28;17.10;;;5.00;99.90;;;;;;5060182;28;20035;-81
2021/12/04 13:39:09;;;;;;;32.25;15.10;;;5.30;99.90;;;;;;5074726;28;20052;-82
2021/12/04 13:41:37;;;;;;;37.38;16.55;;;5.00;99.90;;;;;;5057830;28;20090;-82
2021/12/04 13:44:06;;;;;;;36.85;15.15;;;5.00;99.90;;;;;;5057156;28;20055;-82
2021/12/04 13:46:44;;;;;;;37.45;15.88;;;5.00;99.90;;;;;;5064192;28;20093;-83
2021/12/04 13:49:12;;;;;;;37.90;16.33;;;5.10;99.90;;;;;;5067248;28;20056;-82
2021/12/04 13:51:40;;;;;;;34.78;16.15;;;5.00;99.90;;;;;;5063312;28;20059;-82
2021/12/04 13:54:09;;;;;;;40.10;16.33;;;5.00;99.90;;;;;;5063730;28;20154;-82
2021/12/04 13:56:35;;;;;;;34.80;15.23;;;5.00;99.90;;;;;;5052084;28;20658;-82
2021/12/04 13:59:04;;;;;;;36.70;16.40;;;5.00;99.90;;;;;;5052895;28;20455;-81
2021/12/04 14:01:42;;;;;;;40.10;16.58;;;5.00;99.90;;;;;;5062622;28;20051;-82
2021/12/04 14:04:16;;;;;;;36.40;16.25;;;4.90;99.90;;;;;;5053154;28;20055;-82
2021/12/04 14:06:47;;;;;;;39.20;17.08;;;4.90;99.90;;;;;;5037420;28;20058;-81
2021/12/04 14:09:13;;;;;;;36.90;15.27;;;5.00;99.90;;;;;;5057137;28;20408;-82
2021/12/04 14:11:40;;;;;;;38.38;15.65;;;4.90;99.90;;;;;;5039761;28;20150;-82
2021/12/04 14:14:16;;;;;;;31.13;14.40;;;5.00;99.90;;;;;;5050982;28;20035;-82
2021/12/04 14:16:45;;;;;;;39.50;16.02;;;4.90;99.90;;;;;;5046307;28;20235;-82
2021/12/04 14:19:28;;;;;;;38.03;15.20;;;4.90;99.90;;;;;;5065596;27;20051;-82
2021/12/04 14:22:02;;;;;;;37.00;15.40;;;5.00;99.90;;;;;;5061190;28;20607;-82
2021/12/04 14:24:33;;;;;;;39.80;15.63;;;5.00;99.90;;;;;;5046019;28;20495;-83
2021/12/04 14:27:02;;;;;;;38.63;15.70;;;5.00;99.90;;;;;;5059297;28;20047;-82
2021/12/04 14:29:43;;;;;;;37.92;16.08;;;4.90;99.90;;;;;;5067184;28;20062;-82
2021/12/04 14:32:10;;;;;;;44.33;15.13;;;4.90;99.90;;;;;;5068951;28;20051;-82
2021/12/04 14:34:36;;;;;;;42.40;16.92;;;4.90;99.90;;;;;;5063861;28;20451;-82
2021/12/04 14:37:14;;;;;;;43.03;16.48;;;4.90;99.90;;;;;;5079250;28;20094;-82
2021/12/04 14:39:48;;;;;;;38.95;17.00;;;4.90;99.90;;;;;;5079853;28;20371;-82
2021/12/04 14:42:16;;;;;;;44.25;17.30;;;4.90;99.90;;;;;;5055840;28;20300;-81
2021/12/04 14:44:47;;;;;;;49.35;20.23;;;4.90;99.90;;;;;;5045611;28;20055;-82
2021/12/04 14:47:12;;;;;;;48.35;19.40;;;4.90;99.90;;;;;;5055932;28;20218;-82
2021/12/04 14:49:41;;;;;;;54.10;19.35;;;4.90;99.90;;;;;;5072451;28;20059;-82
2021/12/04 14:52:07;;;;;;;55.80;21.65;;;4.90;99.90;;;;;;5085458;28;20474;-81
2021/12/04 14:54:35;;;;;;;56.00;20.15;;;4.90;99.90;;;;;;5070864;28;20411;-81
2021/12/04 14:57:11;;;;;;;61.47;22.38;;;5.40;99.90;;;;;;5077398;28;20059;-82
2021/12/04 14:59:37;;;;;;;58.05;21.52;;;4.90;99.90;;;;;;5054716;28;20052;-81
2021/12/04 15:02:16;;;;;;;70.90;23.35;;;4.90;99.90;;;;;;5064656;28;20058;-81
2021/12/04 15:04:42;;;;;;;76.35;23.52;;;4.90;99.90;;;;;;5053284;28;20052;-81
2021/12/04 15:07:18;;;;;;;72.82;25.17;;;4.90;99.90;;;;;;5048882;28;20110;-82
2021/12/04 15:09:44;;;;;;;74.85;24.52;;;4.80;99.90;;;;;;5083926;28;20093;-82
2021/12/04 15:12:10;;;;;;;72.65;25.42;;;4.80;99.90;;;;;;5057437;28;20078;-81
2021/12/04 15:14:36;;;;;;;75.57;24.48;;;4.80;99.90;;;;;;5053379;28;20046;-81
2021/12/04 15:17:07;;;;;;;70.95;25.90;;;4.80;99.90;;;;;;5072974;28;20070;-82
2021/12/04 15:19:40;;;;;;;79.45;26.13;;;4.80;99.90;;;;;;5070520;28;20084;-81
2021/12/04 15:22:13;;;;;;;70.80;24.80;;;4.80;99.90;;;;;;5061870;28;20048;-80
2021/12/04 15:24:41;;;;;;;70.32;24.85;;;4.80;99.90;;;;;;5053789;28;20046;-81
2021/12/04 15:27:16;;;;;;;73.43;25.30;;;4.80;99.90;;;;;;5053511;28;20066;-81
2021/12/04 15:29:46;;;;;;;72.55;26.42;;;4.80;99.90;;;;;;5066046;28;20043;-81
2021/12/04 15:32:14;;;;;;;67.65;26.77;;;4.80;99.90;;;;;;5062169;28;20370;-81
2021/12/04 15:34:52;;;;;;;76.03;25.67;;;4.80;99.90;;;;;;5074286;28;20051;-81
2021/12/04 15:37:36;;;;;;;71.45;25.98;;;4.90;99.90;;;;;;5074274;28;20074;-81
2021/12/04 15:40:11;;;;;;;80.50;26.23;;;4.80;99.90;;;;;;5059953;28;20130;-80
2021/12/04 15:42:55;;;;;;;79.85;28.50;;;4.90;99.90;;;;;;5056662;28;20142;-80
2021/12/04 15:48:36;;;;;;;80.45;26.48;;;4.80;99.90;;;;;;5063099;28;20047;-80
2021/12/04 15:54:09;;;;;;;80.32;27.83;;;4.80;99.90;;;;;;5078183;28;20055;-80
2021/12/04 15:56:44;;;;;;;82.38;28.20;;;4.80;99.90;;;;;;5070797;28;20053;-79
2021/12/04 15:59:20;;;;;;;72.07;27.15;;;4.80;99.90;;;;;;5062316;28;20083;-79
2021/12/04 16:01:52;;;;;;;87.55;27.70;;;4.80;99.90;;;;;;5058845;28;20055;-80
2021/12/04 16:04:30;;;;;;;80.65;29.02;;;4.80;99.90;;;;;;5079917;28;20045;-80
2021/12/04 16:06:58;;;;;;;76.63;28.48;;;5.20;99.90;;;;;;5063618;28;20063;-80